sensor_id;sensor_type;location;lat;lon;timestamp;P1;durP1;ratioP1;P2;durP2;ratioP2
55065;SDS011;40964;42.114;24.220;2022-10-13T00:01:18;17.80;;;8.57;;
55065;SDS011;40964;42.114;24.220;2022-10-13T00:03:46;20.42;;;9.13;;
55065;SDS011;40964;42.114;24.220;2022-10-13T00:06:13;16.98;;;8.10;;
55065;SDS011;40964;42.114;24.220;2022-10-13T00:08:40;17.10;;;7.93;;
55065;SDS011;40964;42.114;24.220;2022-10-13T00:11:48;15.80;;;7.75;;
55065;SDS011;40964;42.114;24.220;2022-10-13T00:13:55;18.15;;;8.13;;
55065;SDS011;40964;42.114;24.220;2022-10-13T00:16:23;17.92;;;8.38;;
55065;SDS011;40964;42.114;24.220;2022-10-13T00:18:49;17.48;;;7.70;;
55065;SDS011;40964;42.114;24.220;2022-10-13T00:21:16;17.70;;;8.88;;
55065;SDS011;40964;42.114;24.220;2022-10-13T00:23:44;17.92;;;8.27;;
55065;SDS011;40964;42.114;24.220;2022-10-13T00:26:11;17.75;;;8.05;;
55065;SDS011;40964;42.114;24.220;2022-10-13T00:28:37;19.35;;;8.20;;
55065;SDS011;40964;42.114;24.220;2022-10-13T00:31:13;17.52;;;7.65;;
55065;SDS011;40964;42.114;24.220;2022-10-13T00:33:40;15.73;;;8.25;;
55065;SDS011;40964;42.114;24.220;2022-10-13T00:36:06;17.58;;;9.93;;
55065;SDS011;40964;42.114;24.220;2022-10-13T00:38:31;15.10;;;7.35;;
55065;SDS011;40964;42.114;24.220;2022-10-13T00:40:57;20.23;;;8.82;;
55065;SDS011;40964;42.114;24.220;2022-10-13T00:43:24;17.67;;;7.93;;
55065;SDS011;40964;42.114;24.220;2022-10-13T00:46:12;19.92;;;8.32;;
55065;SDS011;40964;42.114;24.220;2022-10-13T00:48:38;19.25;;;8.70;;
55065;SDS011;40964;42.114;24.220;2022-10-13T00:51:04;20.08;;;8.52;;
55065;SDS011;40964;42.114;24.220;2022-10-13T00:53:31;17.88;;;8.07;;
55065;SDS011;40964;42.114;24.220;2022-10-13T00:56:00;15.40;;;8.00;;
55065;SDS011;40964;42.114;24.220;2022-10-13T00:58:26;16.65;;;9.02;;
55065;SDS011;40964;42.114;24.220;2022-10-13T01:00:57;20.30;;;9.00;;
55065;SDS011;40964;42.114;24.220;2022-10-13T01:03:23;19.10;;;8.70;;
55065;SDS011;40964;42.114;24.220;2022-10-13T01:05:51;16.63;;;8.70;;
55065;SDS011;40964;42.114;24.220;2022-10-13T01:08:19;23.05;;;8.27;;
55065;SDS011;40964;42.114;24.220;2022-10-13T01:16:19;16.55;;;8.40;;
55065;SDS011;40964;42.114;24.220;2022-10-13T01:18:54;19.17;;;8.23;;
55065;SDS011;40964;42.114;24.220;2022-10-13T01:24:17;21.80;;;8.68;;
55065;SDS011;40964;42.114;24.220;2022-10-13T01:27:00;16.38;;;8.13;;
55065;SDS011;40964;42.114;24.220;2022-10-13T01:32:21;16.13;;;8.07;;
55065;SDS011;40964;42.114;24.220;2022-10-13T01:35:26;16.98;;;8.02;;
55065;SDS011;40964;42.114;24.220;2022-10-13T01:38:07;14.15;;;7.70;;
55065;SDS011;40964;42.114;24.220;2022-10-13T01:41:25;20.73;;;8.18;;
55065;SDS011;40964;42.114;24.220;2022-10-13T01:43:45;15.65;;;7.68;;
55065;SDS011;40964;42.114;24.220;2022-10-13T01:46:32;17.02;;;7.53;;
55065;SDS011;40964;42.114;24.220;2022-10-13T01:49:08;15.50;;;7.78;;
55065;SDS011;40964;42.114;24.220;2022-10-13T01:51:36;15.30;;;7.22;;
55065;SDS011;40964;42.114;24.220;2022-10-13T01:54:03;16.48;;;7.53;;
55065;SDS011;40964;42.114;24.220;2022-10-13T01:56:29;12.80;;;6.82;;
55065;SDS011;40964;42.114;24.220;2022-10-13T01:58:55;18.90;;;7.88;;
55065;SDS011;40964;42.114;24.220;2022-10-13T02:01:36;12.77;;;6.80;;
55065;SDS011;40964;42.114;24.220;2022-10-13T02:04:21;13.60;;;6.82;;
55065;SDS011;40964;42.114;24.220;2022-10-13T02:06:58;15.70;;;6.85;;
55065;SDS011;40964;42.114;24.220;2022-10-13T02:12:26;12.07;;;5.85;;
55065;SDS011;40964;42.114;24.220;2022-10-13T02:14:57;14.30;;;6.95;;
55065;SDS011;40964;42.114;24.220;2022-10-13T02:17:25;11.43;;;6.55;;
55065;SDS011;40964;42.114;24.220;2022-10-13T02:19:53;16.17;;;7.00;;
55065;SDS011;40964;42.114;24.220;2022-10-13T02:22:21;15.48;;;7.05;;
55065;SDS011;40964;42.114;24.220;2022-10-13T02:24:51;15.65;;;7.25;;
55065;SDS011;40964;42.114;24.220;2022-10-13T02:27:17;14.93;;;6.75;;
55065;SDS011;40964;42.114;24.220;2022-10-13T02:29:49;12.95;;;6.10;;
55065;SDS011;40964;42.114;24.220;2022-10-13T02:32:16;14.88;;;7.00;;
55065;SDS011;40964;42.114;24.220;2022-10-13T02:34:41;13.95;;;6.35;;
55065;SDS011;40964;42.114;24.220;2022-10-13T02:37:07;14.85;;;6.28;;
55065;SDS011;40964;42.114;24.220;2022-10-13T02:39:32;13.02;;;6.45;;
55065;SDS011;40964;42.114;24.220;2022-10-13T02:41:58;15.85;;;6.93;;
55065;SDS011;40964;42.114;24.220;2022-10-13T02:44:23;11.55;;;6.35;;
55065;SDS011;40964;42.114;24.220;2022-10-13T02:46:49;20.98;;;8.18;;
55065;SDS011;40964;42.114;24.220;2022-10-13T02:49:14;17.80;;;7.28;;
55065;SDS011;40964;42.114;24.220;2022-10-13T02:51:40;19.45;;;7.40;;
55065;SDS011;40964;42.114;24.220;2022-10-13T02:54:06;14.32;;;7.45;;
55065;SDS011;40964;42.114;24.220;2022-10-13T02:56:32;16.77;;;7.75;;
55065;SDS011;40964;42.114;24.220;2022-10-13T02:58:57;13.75;;;6.43;;
55065;SDS011;40964;42.114;24.220;2022-10-13T03:01:23;12.48;;;6.30;;
55065;SDS011;40964;42.114;24.220;2022-10-13T03:03:48;11.10;;;6.38;;
55065;SDS011;40964;42.114;24.220;2022-10-13T03:06:13;13.65;;;6.10;;
55065;SDS011;40964;42.114;24.220;2022-10-13T03:08:39;10.20;;;5.70;;
55065;SDS011;40964;42.114;24.220;2022-10-13T03:11:04;14.85;;;6.60;;
55065;SDS011;40964;42.114;24.220;2022-10-13T03:13:30;11.88;;;6.22;;
55065;SDS011;40964;42.114;24.220;2022-10-13T03:15:55;12.07;;;6.20;;
55065;SDS011;40964;42.114;24.220;2022-10-13T03:18:21;13.57;;;6.85;;
55065;SDS011;40964;42.114;24.220;2022-10-13T03:20:59;18.15;;;8.18;;
55065;SDS011;40964;42.114;24.220;2022-10-13T03:23:28;18.02;;;8.02;;
55065;SDS011;40964;42.114;24.220;2022-10-13T03:25:54;15.85;;;7.40;;
55065;SDS011;40964;42.114;24.220;2022-10-13T03:28:19;16.95;;;7.70;;
55065;SDS011;40964;42.114;24.220;2022-10-13T03:30:45;14.60;;;6.85;;
55065;SDS011;40964;42.114;24.220;2022-10-13T03:33:11;13.13;;;6.53;;
55065;SDS011;40964;42.114;24.220;2022-10-13T03:35:36;16.60;;;6.63;;
55065;SDS011;40964;42.114;24.220;2022-10-13T03:38:02;13.95;;;6.65;;
55065;SDS011;40964;42.114;24.220;2022-10-13T03:40:27;13.75;;;6.45;;
55065;SDS011;40964;42.114;24.220;2022-10-13T03:42:53;14.27;;;6.78;;
55065;SDS011;40964;42.114;24.220;2022-10-13T03:45:18;16.67;;;7.00;;
55065;SDS011;40964;42.114;24.220;2022-10-13T03:47:44;15.10;;;7.60;;
55065;SDS011;40964;42.114;24.220;2022-10-13T03:50:10;14.90;;;6.75;;
55065;SDS011;40964;42.114;24.220;2022-10-13T03:52:35;12.73;;;6.55;;
55065;SDS011;40964;42.114;24.220;2022-10-13T03:55:01;15.25;;;6.60;;
55065;SDS011;40964;42.114;24.220;2022-10-13T03:57:26;17.40;;;6.53;;
55065;SDS011;40964;42.114;24.220;2022-10-13T03:59:52;13.23;;;6.32;;
55065;SDS011;40964;42.114;24.220;2022-10-13T04:02:20;17.10;;;8.18;;
55065;SDS011;40964;42.114;24.220;2022-10-13T04:04:46;22.50;;;10.25;;
55065;SDS011;40964;42.114;24.220;2022-10-13T04:07:11;18.75;;;9.00;;
55065;SDS011;40964;42.114;24.220;2022-10-13T04:09:37;16.50;;;8.60;;
55065;SDS011;40964;42.114;24.220;2022-10-13T04:12:02;12.05;;;6.35;;
55065;SDS011;40964;42.114;24.220;2022-10-13T04:14:28;17.55;;;7.35;;
55065;SDS011;40964;42.114;24.220;2022-10-13T04:16:53;14.90;;;8.48;;
55065;SDS011;40964;42.114;24.220;2022-10-13T04:19:19;16.67;;;8.30;;
55065;SDS011;40964;42.114;24.220;2022-10-13T04:21:44;19.17;;;9.00;;
55065;SDS011;40964;42.114;24.220;2022-10-13T04:24:10;16.02;;;8.85;;
55065;SDS011;40964;42.114;24.220;2022-10-13T04:26:37;17.25;;;6.57;;
55065;SDS011;40964;42.114;24.220;2022-10-13T04:29:03;15.95;;;6.82;;
55065;SDS011;40964;42.114;24.220;2022-10-13T04:31:30;12.60;;;7.03;;
55065;SDS011;40964;42.114;24.220;2022-10-13T04:33:56;16.80;;;6.53;;
55065;SDS011;40964;42.114;24.220;2022-10-13T04:36:22;14.95;;;6.60;;
55065;SDS011;40964;42.114;24.220;2022-10-13T04:38:48;19.40;;;6.57;;
55065;SDS011;40964;42.114;24.220;2022-10-13T04:41:15;11.38;;;6.72;;
55065;SDS011;40964;42.114;24.220;2022-10-13T04:43:42;20.50;;;7.35;;
55065;SDS011;40964;42.114;24.220;2022-10-13T04:46:09;16.92;;;6.97;;
55065;SDS011;40964;42.114;24.220;2022-10-13T04:48:37;13.77;;;6.80;;
55065;SDS011;40964;42.114;24.220;2022-10-13T04:51:07;12.70;;;6.78;;
55065;SDS011;40964;42.114;24.220;2022-10-13T04:53:35;14.30;;;8.50;;
55065;SDS011;40964;42.114;24.220;2022-10-13T04:56:05;16.02;;;8.07;;
55065;SDS011;40964;42.114;24.220;2022-10-13T04:58:35;11.48;;;6.07;;
55065;SDS011;40964;42.114;24.220;2022-10-13T05:01:03;14.65;;;7.20;;
55065;SDS011;40964;42.114;24.220;2022-10-13T05:03:29;11.57;;;6.10;;
55065;SDS011;40964;42.114;24.220;2022-10-13T05:05:55;13.50;;;6.43;;
55065;SDS011;40964;42.114;24.220;2022-10-13T05:08:20;13.10;;;6.78;;
55065;SDS011;40964;42.114;24.220;2022-10-13T05:11:00;15.80;;;7.65;;
55065;SDS011;40964;42.114;24.220;2022-10-13T05:13:27;13.50;;;6.10;;
55065;SDS011;40964;42.114;24.220;2022-10-13T05:15:53;13.07;;;6.93;;
55065;SDS011;40964;42.114;24.220;2022-10-13T05:18:19;14.05;;;7.45;;
55065;SDS011;40964;42.114;24.220;2022-10-13T05:20:45;13.15;;;6.68;;
55065;SDS011;40964;42.114;24.220;2022-10-13T05:23:11;16.88;;;6.85;;
55065;SDS011;40964;42.114;24.220;2022-10-13T05:25:37;15.45;;;8.02;;
55065;SDS011;40964;42.114;24.220;2022-10-13T05:28:03;17.23;;;6.93;;
55065;SDS011;40964;42.114;24.220;2022-10-13T05:30:30;14.60;;;6.97;;
55065;SDS011;40964;42.114;24.220;2022-10-13T05:32:56;11.57;;;6.70;;
55065;SDS011;40964;42.114;24.220;2022-10-13T05:35:22;12.93;;;6.43;;
55065;SDS011;40964;42.114;24.220;2022-10-13T05:37:48;14.55;;;6.53;;
55065;SDS011;40964;42.114;24.220;2022-10-13T05:40:14;17.15;;;6.03;;
55065;SDS011;40964;42.114;24.220;2022-10-13T05:42:40;13.38;;;7.00;;
55065;SDS011;40964;42.114;24.220;2022-10-13T05:45:07;13.45;;;7.05;;
55065;SDS011;40964;42.114;24.220;2022-10-13T05:47:33;13.95;;;7.18;;
55065;SDS011;40964;42.114;24.220;2022-10-13T05:49:59;17.38;;;7.40;;
55065;SDS011;40964;42.114;24.220;2022-10-13T05:52:24;13.35;;;6.50;;
55065;SDS011;40964;42.114;24.220;2022-10-13T05:54:53;11.75;;;6.28;;
55065;SDS011;40964;42.114;24.220;2022-10-13T05:57:25;19.50;;;8.02;;
55065;SDS011;40964;42.114;24.220;2022-10-13T06:00:05;15.20;;;7.10;;
55065;SDS011;40964;42.114;24.220;2022-10-13T06:02:36;17.73;;;7.22;;
55065;SDS011;40964;42.114;24.220;2022-10-13T06:05:05;11.00;;;6.75;;
55065;SDS011;40964;42.114;24.220;2022-10-13T06:07:35;16.27;;;7.63;;
55065;SDS011;40964;42.114;24.220;2022-10-13T06:10:00;19.92;;;7.68;;
55065;SDS011;40964;42.114;24.220;2022-10-13T06:12:26;19.95;;;8.07;;
55065;SDS011;40964;42.114;24.220;2022-10-13T06:14:52;16.52;;;7.18;;
55065;SDS011;40964;42.114;24.220;2022-10-13T06:17:17;15.60;;;7.30;;
55065;SDS011;40964;42.114;24.220;2022-10-13T06:19:43;18.25;;;8.00;;
55065;SDS011;40964;42.114;24.220;2022-10-13T06:22:09;18.98;;;8.80;;
55065;SDS011;40964;42.114;24.220;2022-10-13T06:24:35;17.40;;;8.18;;
55065;SDS011;40964;42.114;24.220;2022-10-13T06:27:01;13.70;;;7.38;;
55065;SDS011;40964;42.114;24.220;2022-10-13T06:29:26;14.20;;;7.15;;
55065;SDS011;40964;42.114;24.220;2022-10-13T06:31:52;20.77;;;8.02;;
55065;SDS011;40964;42.114;24.220;2022-10-13T06:34:17;20.83;;;7.43;;
55065;SDS011;40964;42.114;24.220;2022-10-13T06:36:43;19.42;;;8.73;;
55065;SDS011;40964;42.114;24.220;2022-10-13T06:39:08;20.63;;;8.60;;
55065;SDS011;40964;42.114;24.220;2022-10-13T06:41:34;15.38;;;7.88;;
55065;SDS011;40964;42.114;24.220;2022-10-13T06:43:59;26.42;;;8.75;;
55065;SDS011;40964;42.114;24.220;2022-10-13T06:46:25;25.33;;;8.75;;
55065;SDS011;40964;42.114;24.220;2022-10-13T06:48:51;18.15;;;8.60;;
55065;SDS011;40964;42.114;24.220;2022-10-13T06:51:17;16.73;;;8.13;;
55065;SDS011;40964;42.114;24.220;2022-10-13T06:53:42;17.52;;;8.48;;
55065;SDS011;40964;42.114;24.220;2022-10-13T06:56:08;20.17;;;8.50;;
55065;SDS011;40964;42.114;24.220;2022-10-13T06:58:34;17.02;;;8.05;;
55065;SDS011;40964;42.114;24.220;2022-10-13T07:01:01;16.10;;;7.32;;
55065;SDS011;40964;42.114;24.220;2022-10-13T07:03:26;19.40;;;7.95;;
55065;SDS011;40964;42.114;24.220;2022-10-13T07:05:52;17.23;;;8.32;;
55065;SDS011;40964;42.114;24.220;2022-10-13T07:08:17;18.67;;;8.45;;
55065;SDS011;40964;42.114;24.220;2022-10-13T07:10:43;16.73;;;8.23;;
55065;SDS011;40964;42.114;24.220;2022-10-13T07:13:09;17.40;;;8.13;;
55065;SDS011;40964;42.114;24.220;2022-10-13T07:15:37;16.30;;;7.22;;
55065;SDS011;40964;42.114;24.220;2022-10-13T07:18:04;19.83;;;8.77;;
55065;SDS011;40964;42.114;24.220;2022-10-13T07:20:30;16.50;;;7.95;;
55065;SDS011;40964;42.114;24.220;2022-10-13T07:22:56;17.58;;;8.25;;
55065;SDS011;40964;42.114;24.220;2022-10-13T07:25:21;13.63;;;7.88;;
55065;SDS011;40964;42.114;24.220;2022-10-13T07:27:47;15.65;;;7.82;;
55065;SDS011;40964;42.114;24.220;2022-10-13T07:30:12;16.13;;;8.63;;
55065;SDS011;40964;42.114;24.220;2022-10-13T07:32:38;14.15;;;7.82;;
55065;SDS011;40964;42.114;24.220;2022-10-13T07:35:06;15.43;;;7.60;;
55065;SDS011;40964;42.114;24.220;2022-10-13T07:37:33;16.13;;;7.82;;
55065;SDS011;40964;42.114;24.220;2022-10-13T07:39:59;15.80;;;7.97;;
55065;SDS011;40964;42.114;24.220;2022-10-13T07:42:25;18.25;;;9.00;;
55065;SDS011;40964;42.114;24.220;2022-10-13T07:44:51;14.90;;;7.63;;
55065;SDS011;40964;42.114;24.220;2022-10-13T07:47:16;15.43;;;7.78;;
55065;SDS011;40964;42.114;24.220;2022-10-13T07:49:42;16.50;;;8.23;;
55065;SDS011;40964;42.114;24.220;2022-10-13T07:52:08;17.90;;;8.23;;
55065;SDS011;40964;42.114;24.220;2022-10-13T07:54:33;15.77;;;7.93;;
55065;SDS011;40964;42.114;24.220;2022-10-13T07:56:59;24.17;;;8.70;;
55065;SDS011;40964;42.114;24.220;2022-10-13T07:59:24;20.05;;;8.38;;
55065;SDS011;40964;42.114;24.220;2022-10-13T08:01:50;15.65;;;7.55;;
55065;SDS011;40964;42.114;24.220;2022-10-13T08:04:15;15.98;;;7.40;;
55065;SDS011;40964;42.114;24.220;2022-10-13T08:06:41;17.48;;;7.35;;
55065;SDS011;40964;42.114;24.220;2022-10-13T08:09:07;15.98;;;7.65;;
55065;SDS011;40964;42.114;24.220;2022-10-13T08:11:33;15.43;;;8.15;;
55065;SDS011;40964;42.114;24.220;2022-10-13T08:13:59;13.23;;;7.13;;
55065;SDS011;40964;42.114;24.220;2022-10-13T08:16:29;14.00;;;7.85;;
55065;SDS011;40964;42.114;24.220;2022-10-13T08:18:56;16.45;;;7.88;;
55065;SDS011;40964;42.114;24.220;2022-10-13T08:21:23;19.27;;;9.85;;
55065;SDS011;40964;42.114;24.220;2022-10-13T08:23:49;18.67;;;8.65;;
55065;SDS011;40964;42.114;24.220;2022-10-13T08:26:19;17.58;;;7.93;;
55065;SDS011;40964;42.114;24.220;2022-10-13T08:28:47;13.35;;;7.63;;
55065;SDS011;40964;42.114;24.220;2022-10-13T08:31:13;14.55;;;7.30;;
55065;SDS011;40964;42.114;24.220;2022-10-13T08:33:38;12.40;;;7.40;;
55065;SDS011;40964;42.114;24.220;2022-10-13T08:36:05;13.80;;;6.88;;
55065;SDS011;40964;42.114;24.220;2022-10-13T08:38:32;14.45;;;7.03;;
55065;SDS011;40964;42.114;24.220;2022-10-13T08:40:58;13.52;;;6.97;;
55065;SDS011;40964;42.114;24.220;2022-10-13T08:43:23;12.57;;;7.13;;
55065;SDS011;40964;42.114;24.220;2022-10-13T08:45:51;15.10;;;7.47;;
55065;SDS011;40964;42.114;24.220;2022-10-13T08:48:24;11.27;;;6.07;;
55065;SDS011;40964;42.114;24.220;2022-10-13T08:50:56;11.45;;;6.50;;
55065;SDS011;40964;42.114;24.220;2022-10-13T08:53:26;12.95;;;6.53;;
55065;SDS011;40964;42.114;24.220;2022-10-13T08:55:58;11.02;;;6.70;;
55065;SDS011;40964;42.114;24.220;2022-10-13T08:58:29;15.88;;;7.70;;
55065;SDS011;40964;42.114;24.220;2022-10-13T09:01:05;15.05;;;6.85;;
55065;SDS011;40964;42.114;24.220;2022-10-13T09:03:59;11.05;;;5.70;;
55065;SDS011;40964;42.114;24.220;2022-10-13T09:11:27;11.80;;;6.90;;
55065;SDS011;40964;42.114;24.220;2022-10-13T09:13:57;11.85;;;7.32;;
55065;SDS011;40964;42.114;24.220;2022-10-13T09:16:43;13.82;;;7.05;;
55065;SDS011;40964;42.114;24.220;2022-10-13T09:19:26;12.23;;;7.15;;
55065;SDS011;40964;42.114;24.220;2022-10-13T09:22:14;19.85;;;6.88;;
55065;SDS011;40964;42.114;24.220;2022-10-13T09:30:27;14.23;;;7.68;;
55065;SDS011;40964;42.114;24.220;2022-10-13T09:35:36;17.35;;;7.03;;
55065;SDS011;40964;42.114;24.220;2022-10-13T09:40:42;14.27;;;8.20;;
55065;SDS011;40964;42.114;24.220;2022-10-13T09:43:30;15.32;;;7.45;;
55065;SDS011;40964;42.114;24.220;2022-10-13T09:45:56;15.02;;;7.80;;
55065;SDS011;40964;42.114;24.220;2022-10-13T09:48:27;12.82;;;7.53;;
55065;SDS011;40964;42.114;24.220;2022-10-13T09:50:56;11.75;;;7.38;;
55065;SDS011;40964;42.114;24.220;2022-10-13T09:56:18;16.70;;;7.60;;
55065;SDS011;40964;42.114;24.220;2022-10-13T09:59:34;13.47;;;8.50;;
55065;SDS011;40964;42.114;24.220;2022-10-13T10:01:38;17.38;;;7.88;;
55065;SDS011;40964;42.114;24.220;2022-10-13T10:04:07;20.05;;;7.90;;
55065;SDS011;40964;42.114;24.220;2022-10-13T10:06:36;14.63;;;8.98;;
55065;SDS011;40964;42.114;24.220;2022-10-13T10:09:08;19.92;;;7.90;;
55065;SDS011;40964;42.114;24.220;2022-10-13T10:11:58;16.58;;;7.80;;
55065;SDS011;40964;42.114;24.220;2022-10-13T10:14:37;16.05;;;8.65;;
55065;SDS011;40964;42.114;24.220;2022-10-13T10:17:16;14.68;;;8.10;;
55065;SDS011;40964;42.114;24.220;2022-10-13T10:20:02;16.40;;;7.88;;
55065;SDS011;40964;42.114;24.220;2022-10-13T10:23:27;15.20;;;6.75;;
55065;SDS011;40964;42.114;24.220;2022-10-13T10:25:50;10.30;;;6.85;;
55065;SDS011;40964;42.114;24.220;2022-10-13T10:31:04;11.32;;;6.47;;
55065;SDS011;40964;42.114;24.220;2022-10-13T10:36:12;11.98;;;6.13;;
55065;SDS011;40964;42.114;24.220;2022-10-13T10:38:43;12.15;;;6.60;;
55065;SDS011;40964;42.114;24.220;2022-10-13T10:44:10;13.68;;;6.68;;
55065;SDS011;40964;42.114;24.220;2022-10-13T10:46:48;12.63;;;6.28;;
55065;SDS011;40964;42.114;24.220;2022-10-13T10:49:26;13.65;;;7.10;;
55065;SDS011;40964;42.114;24.220;2022-10-13T10:51:55;14.35;;;6.72;;
55065;SDS011;40964;42.114;24.220;2022-10-13T10:57:28;13.70;;;7.13;;
55065;SDS011;40964;42.114;24.220;2022-10-13T11:00:04;12.25;;;6.70;;
55065;SDS011;40964;42.114;24.220;2022-10-13T11:02:46;9.35;;;6.50;;
55065;SDS011;40964;42.114;24.220;2022-10-13T11:05:17;10.40;;;6.32;;
55065;SDS011;40964;42.114;24.220;2022-10-13T11:15:28;11.88;;;6.38;;
55065;SDS011;40964;42.114;24.220;2022-10-13T11:21:09;11.52;;;6.15;;
55065;SDS011;40964;42.114;24.220;2022-10-13T11:23:34;13.13;;;7.03;;
55065;SDS011;40964;42.114;24.220;2022-10-13T11:28:50;14.40;;;7.18;;
55065;SDS011;40964;42.114;24.220;2022-10-13T11:31:23;16.20;;;8.90;;
55065;SDS011;40964;42.114;24.220;2022-10-13T11:33:51;14.27;;;6.35;;
55065;SDS011;40964;42.114;24.220;2022-10-13T11:42:12;13.38;;;6.00;;
55065;SDS011;40964;42.114;24.220;2022-10-13T11:53:26;9.00;;;5.25;;
55065;SDS011;40964;42.114;24.220;2022-10-13T11:55:59;9.82;;;5.50;;
55065;SDS011;40964;42.114;24.220;2022-10-13T11:58:29;7.55;;;5.22;;
55065;SDS011;40964;42.114;24.220;2022-10-13T12:00:59;10.68;;;5.10;;
55065;SDS011;40964;42.114;24.220;2022-10-13T12:03:37;12.88;;;5.30;;
55065;SDS011;40964;42.114;24.220;2022-10-13T12:08:45;15.68;;;6.60;;
55065;SDS011;40964;42.114;24.220;2022-10-13T12:11:26;9.60;;;5.75;;
55065;SDS011;40964;42.114;24.220;2022-10-13T12:13:54;8.88;;;5.53;;
55065;SDS011;40964;42.114;24.220;2022-10-13T12:16:20;9.38;;;5.07;;
55065;SDS011;40964;42.114;24.220;2022-10-13T12:18:46;8.68;;;5.22;;
55065;SDS011;40964;42.114;24.220;2022-10-13T12:21:13;11.20;;;5.43;;
55065;SDS011;40964;42.114;24.220;2022-10-13T12:23:50;8.82;;;5.30;;
55065;SDS011;40964;42.114;24.220;2022-10-13T12:26:17;8.00;;;5.50;;
55065;SDS011;40964;42.114;24.220;2022-10-13T12:31:26;11.98;;;4.72;;
55065;SDS011;40964;42.114;24.220;2022-10-13T12:34:13;7.05;;;4.40;;
55065;SDS011;40964;42.114;24.220;2022-10-13T12:36:50;11.77;;;5.00;;
55065;SDS011;40964;42.114;24.220;2022-10-13T12:39:19;13.60;;;5.50;;
55065;SDS011;40964;42.114;24.220;2022-10-13T12:41:45;13.43;;;5.82;;
55065;SDS011;40964;42.114;24.220;2022-10-13T12:44:13;7.38;;;4.90;;
55065;SDS011;40964;42.114;24.220;2022-10-13T12:46:44;10.45;;;5.47;;
55065;SDS011;40964;42.114;24.220;2022-10-13T12:49:13;7.82;;;4.80;;
55065;SDS011;40964;42.114;24.220;2022-10-13T12:51:42;7.43;;;4.72;;
55065;SDS011;40964;42.114;24.220;2022-10-13T12:54:17;9.82;;;6.40;;
55065;SDS011;40964;42.114;24.220;2022-10-13T12:56:46;9.32;;;5.93;;
55065;SDS011;40964;42.114;24.220;2022-10-13T12:59:16;9.68;;;5.38;;
55065;SDS011;40964;42.114;24.220;2022-10-13T13:01:43;11.32;;;5.55;;
55065;SDS011;40964;42.114;24.220;2022-10-13T13:06:51;10.10;;;5.60;;
55065;SDS011;40964;42.114;24.220;2022-10-13T13:09:23;7.97;;;5.50;;
55065;SDS011;40964;42.114;24.220;2022-10-13T13:19:30;11.55;;;6.10;;
55065;SDS011;40964;42.114;24.220;2022-10-13T13:21:57;9.23;;;5.57;;
55065;SDS011;40964;42.114;24.220;2022-10-13T13:24:22;14.02;;;6.93;;
55065;SDS011;40964;42.114;24.220;2022-10-13T13:26:48;8.57;;;5.63;;
55065;SDS011;40964;42.114;24.220;2022-10-13T13:29:13;10.60;;;6.07;;
55065;SDS011;40964;42.114;24.220;2022-10-13T13:31:39;10.63;;;5.68;;
55065;SDS011;40964;42.114;24.220;2022-10-13T13:34:04;13.40;;;6.32;;
55065;SDS011;40964;42.114;24.220;2022-10-13T13:36:30;17.33;;;6.65;;
55065;SDS011;40964;42.114;24.220;2022-10-13T13:38:55;13.90;;;6.18;;
55065;SDS011;40964;42.114;24.220;2022-10-13T13:41:21;10.38;;;5.97;;
55065;SDS011;40964;42.114;24.220;2022-10-13T13:43:47;9.77;;;5.47;;
55065;SDS011;40964;42.114;24.220;2022-10-13T13:46:16;8.43;;;5.10;;
55065;SDS011;40964;42.114;24.220;2022-10-13T13:48:44;9.80;;;5.10;;
55065;SDS011;40964;42.114;24.220;2022-10-13T13:51:10;10.10;;;5.57;;
55065;SDS011;40964;42.114;24.220;2022-10-13T13:53:35;8.80;;;5.75;;
55065;SDS011;40964;42.114;24.220;2022-10-13T13:56:01;14.40;;;6.10;;
55065;SDS011;40964;42.114;24.220;2022-10-13T13:58:27;9.50;;;6.07;;
55065;SDS011;40964;42.114;24.220;2022-10-13T14:00:53;10.85;;;6.18;;
55065;SDS011;40964;42.114;24.220;2022-10-13T14:03:18;10.35;;;6.10;;
55065;SDS011;40964;42.114;24.220;2022-10-13T14:05:44;15.00;;;6.00;;
55065;SDS011;40964;42.114;24.220;2022-10-13T14:08:09;15.60;;;6.30;;
55065;SDS011;40964;42.114;24.220;2022-10-13T14:10:37;12.65;;;5.60;;
55065;SDS011;40964;42.114;24.220;2022-10-13T14:13:04;10.85;;;6.13;;
55065;SDS011;40964;42.114;24.220;2022-10-13T14:15:29;10.88;;;6.15;;
55065;SDS011;40964;42.114;24.220;2022-10-13T14:17:55;11.43;;;6.25;;
55065;SDS011;40964;42.114;24.220;2022-10-13T14:20:21;9.25;;;5.40;;
55065;SDS011;40964;42.114;24.220;2022-10-13T14:22:46;9.77;;;5.45;;
55065;SDS011;40964;42.114;24.220;2022-10-13T14:25:12;8.38;;;5.57;;
55065;SDS011;40964;42.114;24.220;2022-10-13T14:27:38;9.65;;;5.40;;
55065;SDS011;40964;42.114;24.220;2022-10-13T14:30:04;16.60;;;5.90;;
55065;SDS011;40964;42.114;24.220;2022-10-13T14:32:30;9.80;;;5.20;;
55065;SDS011;40964;42.114;24.220;2022-10-13T14:34:56;10.77;;;5.90;;
55065;SDS011;40964;42.114;24.220;2022-10-13T14:37:21;13.65;;;6.10;;
55065;SDS011;40964;42.114;24.220;2022-10-13T14:39:47;16.55;;;7.25;;
55065;SDS011;40964;42.114;24.220;2022-10-13T14:42:12;12.82;;;6.80;;
55065;SDS011;40964;42.114;24.220;2022-10-13T14:44:37;14.68;;;6.30;;
55065;SDS011;40964;42.114;24.220;2022-10-13T14:47:03;10.48;;;5.95;;
55065;SDS011;40964;42.114;24.220;2022-10-13T14:49:28;11.07;;;5.90;;
55065;SDS011;40964;42.114;24.220;2022-10-13T14:51:54;11.75;;;7.03;;
55065;SDS011;40964;42.114;24.220;2022-10-13T14:54:19;12.57;;;6.90;;
55065;SDS011;40964;42.114;24.220;2022-10-13T14:56:45;14.07;;;7.82;;
55065;SDS011;40964;42.114;24.220;2022-10-13T14:59:11;12.02;;;6.93;;
55065;SDS011;40964;42.114;24.220;2022-10-13T15:01:37;16.33;;;6.40;;
55065;SDS011;40964;42.114;24.220;2022-10-13T15:04:04;10.73;;;6.70;;
55065;SDS011;40964;42.114;24.220;2022-10-13T15:06:30;10.85;;;5.60;;
55065;SDS011;40964;42.114;24.220;2022-10-13T15:08:56;11.07;;;5.53;;
55065;SDS011;40964;42.114;24.220;2022-10-13T15:11:22;9.38;;;5.47;;
55065;SDS011;40964;42.114;24.220;2022-10-13T15:13:48;9.98;;;5.80;;
55065;SDS011;40964;42.114;24.220;2022-10-13T15:16:15;10.88;;;6.28;;
55065;SDS011;40964;42.114;24.220;2022-10-13T15:18:42;10.95;;;6.30;;
55065;SDS011;40964;42.114;24.220;2022-10-13T15:21:07;10.00;;;6.00;;
55065;SDS011;40964;42.114;24.220;2022-10-13T15:23:33;11.05;;;6.72;;
55065;SDS011;40964;42.114;24.220;2022-10-13T15:25:59;8.60;;;6.07;;
55065;SDS011;40964;42.114;24.220;2022-10-13T15:28:32;15.05;;;6.45;;
55065;SDS011;40964;42.114;24.220;2022-10-13T15:31:00;9.18;;;6.07;;
55065;SDS011;40964;42.114;24.220;2022-10-13T15:33:25;9.15;;;5.68;;
55065;SDS011;40964;42.114;24.220;2022-10-13T15:35:51;12.80;;;6.60;;
55065;SDS011;40964;42.114;24.220;2022-10-13T15:38:18;13.88;;;6.45;;
55065;SDS011;40964;42.114;24.220;2022-10-13T15:40:44;14.20;;;7.00;;
55065;SDS011;40964;42.114;24.220;2022-10-13T15:43:10;11.45;;;6.35;;
55065;SDS011;40964;42.114;24.220;2022-10-13T15:45:36;12.55;;;6.32;;
55065;SDS011;40964;42.114;24.220;2022-10-13T15:48:02;10.73;;;6.65;;
55065;SDS011;40964;42.114;24.220;2022-10-13T15:50:29;10.98;;;7.00;;
55065;SDS011;40964;42.114;24.220;2022-10-13T15:52:55;11.65;;;5.85;;
55065;SDS011;40964;42.114;24.220;2022-10-13T15:55:20;11.90;;;6.07;;
55065;SDS011;40964;42.114;24.220;2022-10-13T15:57:46;14.02;;;6.85;;
55065;SDS011;40964;42.114;24.220;2022-10-13T16:00:12;12.07;;;6.75;;